sensor_id;sensor_type;location;lat;lon;timestamp;P1;durP1;ratioP1;P2;durP2;ratioP2
59555;SDS011;45374;52.746;6.304;2022-08-25T00:00:16;13.40;;;11.85;;
59555;SDS011;45374;52.746;6.304;2022-08-25T00:02:44;14.30;;;11.88;;
59555;SDS011;45374;52.746;6.304;2022-08-25T00:05:10;14.77;;;12.40;;
59555;SDS011;45374;52.746;6.304;2022-08-25T00:07:36;12.77;;;11.48;;
59555;SDS011;45374;52.746;6.304;2022-08-25T00:10:02;13.10;;;11.70;;
59555;SDS011;45374;52.746;6.304;2022-08-25T00:12:29;14.07;;;11.57;;
59555;SDS011;45374;52.746;6.304;2022-08-25T00:14:54;15.50;;;12.00;;
59555;SDS011;45374;52.746;6.304;2022-08-25T00:17:20;13.85;;;12.45;;
59555;SDS011;45374;52.746;6.304;2022-08-25T00:19:45;14.45;;;12.38;;
59555;SDS011;45374;52.746;6.304;2022-08-25T00:22:11;14.50;;;11.95;;
59555;SDS011;45374;52.746;6.304;2022-08-25T00:24:37;13.60;;;11.73;;
59555;SDS011;45374;52.746;6.304;2022-08-25T00:27:02;13.10;;;11.70;;
59555;SDS011;45374;52.746;6.304;2022-08-25T00:29:29;16.67;;;11.80;;
59555;SDS011;45374;52.746;6.304;2022-08-25T00:31:55;14.10;;;11.70;;
59555;SDS011;45374;52.746;6.304;2022-08-25T00:34:23;13.32;;;11.98;;
59555;SDS011;45374;52.746;6.304;2022-08-25T00:36:52;15.38;;;11.57;;
59555;SDS011;45374;52.746;6.304;2022-08-25T00:39:19;12.05;;;10.80;;
59555;SDS011;45374;52.746;6.304;2022-08-25T00:41:46;16.05;;;11.13;;
59555;SDS011;45374;52.746;6.304;2022-08-25T00:44:15;11.02;;;9.73;;
59555;SDS011;45374;52.746;6.304;2022-08-25T00:46:53;12.85;;;9.63;;
59555;SDS011;45374;52.746;6.304;2022-08-25T00:49:23;10.52;;;9.10;;
59555;SDS011;45374;52.746;6.304;2022-08-25T00:54:27;11.73;;;8.73;;
59555;SDS011;45374;52.746;6.304;2022-08-25T00:57:00;10.55;;;9.00;;
59555;SDS011;45374;52.746;6.304;2022-08-25T00:59:28;11.32;;;8.30;;
59555;SDS011;45374;52.746;6.304;2022-08-25T01:01:55;12.68;;;8.60;;
59555;SDS011;45374;52.746;6.304;2022-08-25T01:04:22;10.32;;;8.23;;
59555;SDS011;45374;52.746;6.304;2022-08-25T01:06:49;9.35;;;8.02;;
59555;SDS011;45374;52.746;6.304;2022-08-25T01:09:16;11.73;;;7.97;;
59555;SDS011;45374;52.746;6.304;2022-08-25T01:11:43;9.48;;;8.25;;
59555;SDS011;45374;52.746;6.304;2022-08-25T01:14:11;12.93;;;8.18;;
59555;SDS011;45374;52.746;6.304;2022-08-25T01:16:40;9.30;;;7.53;;
59555;SDS011;45374;52.746;6.304;2022-08-25T01:19:07;9.30;;;8.00;;
59555;SDS011;45374;52.746;6.304;2022-08-25T01:21:38;9.95;;;7.78;;
59555;SDS011;45374;52.746;6.304;2022-08-25T01:24:06;9.15;;;7.47;;
59555;SDS011;45374;52.746;6.304;2022-08-25T01:26:35;8.63;;;7.50;;
59555;SDS011;45374;52.746;6.304;2022-08-25T01:29:02;9.48;;;7.53;;
59555;SDS011;45374;52.746;6.304;2022-08-25T01:31:45;8.55;;;7.10;;
59555;SDS011;45374;52.746;6.304;2022-08-25T01:34:15;9.38;;;7.45;;
59555;SDS011;45374;52.746;6.304;2022-08-25T01:36:42;11.68;;;7.00;;
59555;SDS011;45374;52.746;6.304;2022-08-25T01:39:10;9.30;;;6.97;;
59555;SDS011;45374;52.746;6.304;2022-08-25T01:44:44;8.93;;;6.38;;
59555;SDS011;45374;52.746;6.304;2022-08-25T01:47:11;8.68;;;6.43;;
59555;SDS011;45374;52.746;6.304;2022-08-25T01:49:38;7.07;;;6.30;;
59555;SDS011;45374;52.746;6.304;2022-08-25T01:54:30;12.13;;;6.78;;
59555;SDS011;45374;52.746;6.304;2022-08-25T01:56:56;8.00;;;6.60;;
59555;SDS011;45374;52.746;6.304;2022-08-25T01:59:23;8.68;;;6.65;;
59555;SDS011;45374;52.746;6.304;2022-08-25T02:01:50;11.90;;;6.55;;
59555;SDS011;45374;52.746;6.304;2022-08-25T02:04:15;7.75;;;5.97;;
59555;SDS011;45374;52.746;6.304;2022-08-25T02:06:41;7.93;;;6.55;;
59555;SDS011;45374;52.746;6.304;2022-08-25T02:09:08;8.07;;;5.93;;
59555;SDS011;45374;52.746;6.304;2022-08-25T02:11:36;8.80;;;5.80;;
59555;SDS011;45374;52.746;6.304;2022-08-25T02:14:05;8.18;;;5.90;;
59555;SDS011;45374;52.746;6.304;2022-08-25T02:16:32;7.72;;;6.30;;
59555;SDS011;45374;52.746;6.304;2022-08-25T02:19:00;9.43;;;5.95;;
59555;SDS011;45374;52.746;6.304;2022-08-25T02:21:26;9.77;;;5.65;;
59555;SDS011;45374;52.746;6.304;2022-08-25T02:23:52;9.65;;;5.50;;
59555;SDS011;45374;52.746;6.304;2022-08-25T02:26:18;7.60;;;5.80;;
59555;SDS011;45374;52.746;6.304;2022-08-25T02:28:45;8.32;;;5.80;;
59555;SDS011;45374;52.746;6.304;2022-08-25T02:31:13;6.15;;;5.55;;
59555;SDS011;45374;52.746;6.304;2022-08-25T02:33:39;8.65;;;5.60;;
59555;SDS011;45374;52.746;6.304;2022-08-25T02:36:05;7.38;;;5.10;;
59555;SDS011;45374;52.746;6.304;2022-08-25T02:38:31;8.85;;;5.22;;
59555;SDS011;45374;52.746;6.304;2022-08-25T02:40:58;6.45;;;5.43;;
59555;SDS011;45374;52.746;6.304;2022-08-25T02:43:24;8.90;;;5.00;;
59555;SDS011;45374;52.746;6.304;2022-08-25T02:45:51;8.18;;;5.35;;
59555;SDS011;45374;52.746;6.304;2022-08-25T02:48:18;8.63;;;4.82;;
59555;SDS011;45374;52.746;6.304;2022-08-25T02:50:47;7.10;;;5.32;;
59555;SDS011;45374;52.746;6.304;2022-08-25T02:53:16;11.38;;;5.53;;
59555;SDS011;45374;52.746;6.304;2022-08-25T02:55:42;9.05;;;5.93;;
59555;SDS011;45374;52.746;6.304;2022-08-25T02:58:08;8.38;;;5.45;;
59555;SDS011;45374;52.746;6.304;2022-08-25T03:00:34;9.52;;;5.82;;
59555;SDS011;45374;52.746;6.304;2022-08-25T03:03:00;10.75;;;6.03;;
59555;SDS011;45374;52.746;6.304;2022-08-25T03:05:26;7.55;;;6.00;;
59555;SDS011;45374;52.746;6.304;2022-08-25T03:07:52;7.70;;;5.28;;
59555;SDS011;45374;52.746;6.304;2022-08-25T03:10:17;8.38;;;5.95;;
59555;SDS011;45374;52.746;6.304;2022-08-25T03:12:44;8.55;;;5.80;;
59555;SDS011;45374;52.746;6.304;2022-08-25T03:15:10;8.95;;;5.45;;
59555;SDS011;45374;52.746;6.304;2022-08-25T03:17:38;8.95;;;5.35;;
59555;SDS011;45374;52.746;6.304;2022-08-25T03:20:04;5.82;;;5.22;;
59555;SDS011;45374;52.746;6.304;2022-08-25T03:22:30;7.43;;;4.90;;
59555;SDS011;45374;52.746;6.304;2022-08-25T03:24:56;7.45;;;4.80;;
59555;SDS011;45374;52.746;6.304;2022-08-25T03:27:41;9.18;;;5.07;;
59555;SDS011;45374;52.746;6.304;2022-08-25T03:30:07;7.63;;;5.53;;
59555;SDS011;45374;52.746;6.304;2022-08-25T03:32:33;8.27;;;5.97;;
59555;SDS011;45374;52.746;6.304;2022-08-25T03:34:59;8.10;;;5.68;;
59555;SDS011;45374;52.746;6.304;2022-08-25T03:37:26;7.97;;;5.68;;
59555;SDS011;45374;52.746;6.304;2022-08-25T03:39:51;9.57;;;5.78;;
59555;SDS011;45374;52.746;6.304;2022-08-25T03:42:17;7.82;;;5.55;;
59555;SDS011;45374;52.746;6.304;2022-08-25T03:44:43;7.95;;;6.15;;
59555;SDS011;45374;52.746;6.304;2022-08-25T03:47:09;11.38;;;5.53;;
59555;SDS011;45374;52.746;6.304;2022-08-25T03:49:34;7.18;;;4.95;;
59555;SDS011;45374;52.746;6.304;2022-08-25T03:52:00;6.82;;;5.38;;
59555;SDS011;45374;52.746;6.304;2022-08-25T03:54:26;8.25;;;5.13;;
59555;SDS011;45374;52.746;6.304;2022-08-25T03:56:51;8.20;;;5.32;;
59555;SDS011;45374;52.746;6.304;2022-08-25T03:59:18;8.40;;;5.40;;
59555;SDS011;45374;52.746;6.304;2022-08-25T04:01:44;9.40;;;5.55;;
59555;SDS011;45374;52.746;6.304;2022-08-25T04:04:11;8.48;;;5.20;;
59555;SDS011;45374;52.746;6.304;2022-08-25T04:06:39;9.45;;;5.30;;
59555;SDS011;45374;52.746;6.304;2022-08-25T04:09:06;9.05;;;5.20;;
59555;SDS011;45374;52.746;6.304;2022-08-25T04:11:32;11.18;;;5.90;;
59555;SDS011;45374;52.746;6.304;2022-08-25T04:13:58;7.57;;;5.88;;
59555;SDS011;45374;52.746;6.304;2022-08-25T04:16:26;9.75;;;6.13;;
59555;SDS011;45374;52.746;6.304;2022-08-25T04:18:55;12.98;;;6.55;;
59555;SDS011;45374;52.746;6.304;2022-08-25T04:21:22;9.57;;;6.28;;
59555;SDS011;45374;52.746;6.304;2022-08-25T04:23:48;7.60;;;6.47;;
59555;SDS011;45374;52.746;6.304;2022-08-25T04:26:17;8.40;;;6.32;;
59555;SDS011;45374;52.746;6.304;2022-08-25T04:28:44;10.07;;;6.68;;
59555;SDS011;45374;52.746;6.304;2022-08-25T04:31:11;9.13;;;6.50;;
59555;SDS011;45374;52.746;6.304;2022-08-25T04:33:41;7.20;;;6.13;;
59555;SDS011;45374;52.746;6.304;2022-08-25T04:36:08;7.70;;;6.00;;
59555;SDS011;45374;52.746;6.304;2022-08-25T04:38:35;11.25;;;6.00;;
59555;SDS011;45374;52.746;6.304;2022-08-25T04:41:03;8.70;;;5.70;;
59555;SDS011;45374;52.746;6.304;2022-08-25T04:43:30;7.40;;;5.75;;
59555;SDS011;45374;52.746;6.304;2022-08-25T04:45:57;9.52;;;6.13;;
59555;SDS011;45374;52.746;6.304;2022-08-25T04:48:23;7.25;;;5.95;;
59555;SDS011;45374;52.746;6.304;2022-08-25T04:50:49;6.93;;;6.20;;
59555;SDS011;45374;52.746;6.304;2022-08-25T04:53:15;7.40;;;6.15;;
59555;SDS011;45374;52.746;6.304;2022-08-25T04:55:42;10.55;;;6.15;;
59555;SDS011;45374;52.746;6.304;2022-08-25T04:58:10;8.23;;;5.70;;
59555;SDS011;45374;52.746;6.304;2022-08-25T05:00:36;8.98;;;6.00;;
59555;SDS011;45374;52.746;6.304;2022-08-25T05:03:03;11.10;;;5.70;;
59555;SDS011;45374;52.746;6.304;2022-08-25T05:05:29;8.95;;;6.07;;
59555;SDS011;45374;52.746;6.304;2022-08-25T05:07:55;7.65;;;5.82;;
59555;SDS011;45374;52.746;6.304;2022-08-25T05:10:21;8.07;;;5.88;;
59555;SDS011;45374;52.746;6.304;2022-08-25T05:12:47;10.80;;;6.45;;
59555;SDS011;45374;52.746;6.304;2022-08-25T05:15:13;11.27;;;6.53;;
59555;SDS011;45374;52.746;6.304;2022-08-25T05:17:57;6.90;;;5.70;;
59555;SDS011;45374;52.746;6.304;2022-08-25T05:20:23;8.77;;;6.10;;
59555;SDS011;45374;52.746;6.304;2022-08-25T05:22:49;9.00;;;6.30;;
59555;SDS011;45374;52.746;6.304;2022-08-25T05:25:14;8.82;;;5.85;;
59555;SDS011;45374;52.746;6.304;2022-08-25T05:27:41;10.73;;;6.47;;
59555;SDS011;45374;52.746;6.304;2022-08-25T05:30:08;8.73;;;6.13;;
59555;SDS011;45374;52.746;6.304;2022-08-25T05:32:34;6.75;;;5.82;;
59555;SDS011;45374;52.746;6.304;2022-08-25T05:35:00;9.68;;;6.65;;
59555;SDS011;45374;52.746;6.304;2022-08-25T05:37:26;10.10;;;5.97;;
59555;SDS011;45374;52.746;6.304;2022-08-25T05:39:51;8.00;;;5.72;;
59555;SDS011;45374;52.746;6.304;2022-08-25T05:42:17;10.38;;;5.90;;
59555;SDS011;45374;52.746;6.304;2022-08-25T05:44:43;9.98;;;5.82;;
59555;SDS011;45374;52.746;6.304;2022-08-25T05:47:08;8.63;;;6.03;;
59555;SDS011;45374;52.746;6.304;2022-08-25T05:49:34;8.77;;;5.78;;
59555;SDS011;45374;52.746;6.304;2022-08-25T05:51:59;8.50;;;5.80;;
59555;SDS011;45374;52.746;6.304;2022-08-25T05:54:25;9.52;;;6.18;;
59555;SDS011;45374;52.746;6.304;2022-08-25T05:56:51;9.70;;;6.57;;
59555;SDS011;45374;52.746;6.304;2022-08-25T05:59:16;8.98;;;5.97;;
59555;SDS011;45374;52.746;6.304;2022-08-25T06:01:42;7.07;;;5.60;;
59555;SDS011;45374;52.746;6.304;2022-08-25T06:04:26;12.35;;;7.32;;
59555;SDS011;45374;52.746;6.304;2022-08-25T06:06:51;11.73;;;6.53;;
59555;SDS011;45374;52.746;6.304;2022-08-25T06:09:19;11.50;;;6.40;;
59555;SDS011;45374;52.746;6.304;2022-08-25T06:11:46;9.35;;;6.25;;
59555;SDS011;45374;52.746;6.304;2022-08-25T06:14:12;14.32;;;8.13;;
59555;SDS011;45374;52.746;6.304;2022-08-25T06:16:39;11.07;;;6.63;;
59555;SDS011;45374;52.746;6.304;2022-08-25T06:19:05;9.85;;;5.95;;
59555;SDS011;45374;52.746;6.304;2022-08-25T06:21:33;11.02;;;7.18;;
59555;SDS011;45374;52.746;6.304;2022-08-25T06:23:58;8.88;;;5.53;;
59555;SDS011;45374;52.746;6.304;2022-08-25T06:26:24;9.80;;;6.15;;
59555;SDS011;45374;52.746;6.304;2022-08-25T06:28:50;9.93;;;6.22;;
59555;SDS011;45374;52.746;6.304;2022-08-25T06:31:17;14.90;;;6.65;;
59555;SDS011;45374;52.746;6.304;2022-08-25T06:33:43;11.38;;;6.07;;
59555;SDS011;45374;52.746;6.304;2022-08-25T06:36:10;14.75;;;6.07;;
59555;SDS011;45374;52.746;6.304;2022-08-25T06:38:36;7.75;;;5.60;;
59555;SDS011;45374;52.746;6.304;2022-08-25T06:41:02;7.10;;;5.20;;
59555;SDS011;45374;52.746;6.304;2022-08-25T06:43:29;8.02;;;5.45;;
59555;SDS011;45374;52.746;6.304;2022-08-25T06:45:57;7.18;;;5.28;;
59555;SDS011;45374;52.746;6.304;2022-08-25T06:48:23;9.18;;;5.03;;
59555;SDS011;45374;52.746;6.304;2022-08-25T06:50:49;6.63;;;5.20;;
59555;SDS011;45374;52.746;6.304;2022-08-25T06:53:14;8.07;;;5.18;;
59555;SDS011;45374;52.746;6.304;2022-08-25T06:55:40;6.75;;;5.15;;
59555;SDS011;45374;52.746;6.304;2022-08-25T06:58:05;9.98;;;5.10;;
59555;SDS011;45374;52.746;6.304;2022-08-25T07:00:32;9.52;;;5.50;;
59555;SDS011;45374;52.746;6.304;2022-08-25T07:02:58;7.13;;;4.57;;
59555;SDS011;45374;52.746;6.304;2022-08-25T07:05:25;7.88;;;5.10;;
59555;SDS011;45374;52.746;6.304;2022-08-25T07:07:51;6.50;;;4.95;;
59555;SDS011;45374;52.746;6.304;2022-08-25T07:10:17;6.65;;;5.05;;
59555;SDS011;45374;52.746;6.304;2022-08-25T07:12:43;8.43;;;4.90;;
59555;SDS011;45374;52.746;6.304;2022-08-25T07:15:08;9.25;;;5.00;;
59555;SDS011;45374;52.746;6.304;2022-08-25T07:17:34;5.53;;;4.65;;
59555;SDS011;45374;52.746;6.304;2022-08-25T07:20:00;8.73;;;5.30;;
59555;SDS011;45374;52.746;6.304;2022-08-25T07:22:26;6.68;;;5.00;;
59555;SDS011;45374;52.746;6.304;2022-08-25T07:24:51;8.85;;;4.80;;
59555;SDS011;45374;52.746;6.304;2022-08-25T07:27:17;7.43;;;4.85;;
59555;SDS011;45374;52.746;6.304;2022-08-25T07:29:42;9.75;;;4.70;;
59555;SDS011;45374;52.746;6.304;2022-08-25T07:32:08;8.13;;;4.90;;
59555;SDS011;45374;52.746;6.304;2022-08-25T07:34:34;7.05;;;4.70;;
59555;SDS011;45374;52.746;6.304;2022-08-25T07:37:18;5.53;;;4.75;;
59555;SDS011;45374;52.746;6.304;2022-08-25T07:39:45;7.32;;;4.90;;
59555;SDS011;45374;52.746;6.304;2022-08-25T07:42:11;6.82;;;4.82;;
59555;SDS011;45374;52.746;6.304;2022-08-25T07:44:37;8.60;;;5.13;;
59555;SDS011;45374;52.746;6.304;2022-08-25T07:47:03;9.13;;;5.15;;
59555;SDS011;45374;52.746;6.304;2022-08-25T07:49:29;7.78;;;5.05;;
59555;SDS011;45374;52.746;6.304;2022-08-25T07:51:55;9.00;;;5.25;;
59555;SDS011;45374;52.746;6.304;2022-08-25T07:54:20;7.53;;;5.05;;
59555;SDS011;45374;52.746;6.304;2022-08-25T07:56:47;8.18;;;5.72;;
59555;SDS011;45374;52.746;6.304;2022-08-25T07:59:12;7.28;;;5.00;;
59555;SDS011;45374;52.746;6.304;2022-08-25T08:01:38;10.32;;;4.78;;
59555;SDS011;45374;52.746;6.304;2022-08-25T08:04:04;8.48;;;5.00;;
59555;SDS011;45374;52.746;6.304;2022-08-25T08:06:29;9.07;;;4.70;;
59555;SDS011;45374;52.746;6.304;2022-08-25T08:08:55;9.45;;;4.40;;
59555;SDS011;45374;52.746;6.304;2022-08-25T08:13:52;5.75;;;4.63;;
59555;SDS011;45374;52.746;6.304;2022-08-25T08:16:20;9.18;;;4.90;;
59555;SDS011;45374;52.746;6.304;2022-08-25T08:18:47;8.70;;;4.78;;
59555;SDS011;45374;52.746;6.304;2022-08-25T08:21:21;8.93;;;5.10;;
59555;SDS011;45374;52.746;6.304;2022-08-25T08:23:49;9.68;;;4.78;;
59555;SDS011;45374;52.746;6.304;2022-08-25T08:26:16;10.70;;;5.03;;
59555;SDS011;45374;52.746;6.304;2022-08-25T08:28:42;7.53;;;4.70;;
59555;SDS011;45374;52.746;6.304;2022-08-25T08:31:08;8.85;;;4.47;;
59555;SDS011;45374;52.746;6.304;2022-08-25T08:33:33;6.93;;;4.38;;
59555;SDS011;45374;52.746;6.304;2022-08-25T08:36:00;8.23;;;4.50;;
59555;SDS011;45374;52.746;6.304;2022-08-25T08:38:28;5.43;;;4.40;;
59555;SDS011;45374;52.746;6.304;2022-08-25T08:44:07;6.18;;;4.43;;
59555;SDS011;45374;52.746;6.304;2022-08-25T08:49:33;6.47;;;4.30;;
59555;SDS011;45374;52.746;6.304;2022-08-25T08:52:10;5.72;;;4.22;;
59555;SDS011;45374;52.746;6.304;2022-08-25T08:54:39;7.10;;;4.07;;
59555;SDS011;45374;52.746;6.304;2022-08-25T08:57:11;8.73;;;4.40;;
59555;SDS011;45374;52.746;6.304;2022-08-25T08:59:48;8.40;;;4.20;;
59555;SDS011;45374;52.746;6.304;2022-08-25T09:02:41;6.32;;;4.03;;
59555;SDS011;45374;52.746;6.304;2022-08-25T09:05:11;7.78;;;3.92;;
59555;SDS011;45374;52.746;6.304;2022-08-25T09:07:40;8.27;;;4.00;;
59555;SDS011;45374;52.746;6.304;2022-08-25T09:10:11;5.50;;;3.80;;
59555;SDS011;45374;52.746;6.304;2022-08-25T09:28:51;6.35;;;3.33;;
59555;SDS011;45374;52.746;6.304;2022-08-25T09:31:34;4.97;;;3.20;;
59555;SDS011;45374;52.746;6.304;2022-08-25T09:34:03;5.53;;;3.40;;
59555;SDS011;45374;52.746;6.304;2022-08-25T09:36:35;4.13;;;3.00;;
59555;SDS011;45374;52.746;6.304;2022-08-25T09:39:01;6.55;;;3.65;;
59555;SDS011;45374;52.746;6.304;2022-08-25T09:41:34;7.22;;;3.05;;
59555;SDS011;45374;52.746;6.304;2022-08-25T09:44:15;7.05;;;3.42;;
59555;SDS011;45374;52.746;6.304;2022-08-25T09:46:53;6.47;;;3.33;;
59555;SDS011;45374;52.746;6.304;2022-08-25T09:52:23;6.15;;;3.40;;
59555;SDS011;45374;52.746;6.304;2022-08-25T09:54:55;6.07;;;3.28;;
59555;SDS011;45374;52.746;6.304;2022-08-25T10:00:32;5.85;;;3.60;;
59555;SDS011;45374;52.746;6.304;2022-08-25T10:10:56;8.00;;;4.03;;
59555;SDS011;45374;52.746;6.304;2022-08-25T10:16:27;6.40;;;3.40;;
59555;SDS011;45374;52.746;6.304;2022-08-25T10:21:39;6.80;;;3.55;;
59555;SDS011;45374;52.746;6.304;2022-08-25T10:24:07;4.18;;;3.78;;
59555;SDS011;45374;52.746;6.304;2022-08-25T10:34:52;4.78;;;3.55;;
59555;SDS011;45374;52.746;6.304;2022-08-25T10:37:42;6.72;;;3.40;;
59555;SDS011;45374;52.746;6.304;2022-08-25T10:40:50;6.93;;;3.47;;
59555;SDS011;45374;52.746;6.304;2022-08-25T10:49:19;6.28;;;3.60;;
59555;SDS011;45374;52.746;6.304;2022-08-25T10:51:38;6.97;;;3.70;;
59555;SDS011;45374;52.746;6.304;2022-08-25T10:56:42;5.20;;;3.53;;
59555;SDS011;45374;52.746;6.304;2022-08-25T11:00:17;4.90;;;3.40;;
59555;SDS011;45374;52.746;6.304;2022-08-25T11:05:27;5.15;;;3.10;;
59555;SDS011;45374;52.746;6.304;2022-08-25T11:08:38;5.35;;;3.50;;
59555;SDS011;45374;52.746;6.304;2022-08-25T11:10:50;6.80;;;3.60;;
59555;SDS011;45374;52.746;6.304;2022-08-25T11:13:23;8.55;;;3.60;;
59555;SDS011;45374;52.746;6.304;2022-08-25T11:16:32;4.65;;;3.40;;
59555;SDS011;45374;52.746;6.304;2022-08-25T11:22:14;7.20;;;3.70;;
59555;SDS011;45374;52.746;6.304;2022-08-25T11:27:22;5.50;;;3.42;;
59555;SDS011;45374;52.746;6.304;2022-08-25T11:30:01;4.18;;;3.33;;
59555;SDS011;45374;52.746;6.304;2022-08-25T11:32:34;6.45;;;3.15;;
59555;SDS011;45374;52.746;6.304;2022-08-25T11:35:04;6.18;;;3.13;;
59555;SDS011;45374;52.746;6.304;2022-08-25T11:37:33;5.25;;;3.40;;
59555;SDS011;45374;52.746;6.304;2022-08-25T11:42:57;3.45;;;3.00;;
59555;SDS011;45374;52.746;6.304;2022-08-25T11:45:50;5.30;;;3.45;;
59555;SDS011;45374;52.746;6.304;2022-08-25T11:54:49;4.93;;;3.20;;
59555;SDS011;45374;52.746;6.304;2022-08-25T12:02:33;4.88;;;3.03;;
59555;SDS011;45374;52.746;6.304;2022-08-25T12:04:57;6.38;;;3.13;;
59555;SDS011;45374;52.746;6.304;2022-08-25T12:07:27;5.00;;;3.30;;
59555;SDS011;45374;52.746;6.304;2022-08-25T12:23:33;3.22;;;2.78;;
59555;SDS011;45374;52.746;6.304;2022-08-25T12:34:37;4.22;;;2.78;;
59555;SDS011;45374;52.746;6.304;2022-08-25T12:37:25;3.80;;;3.00;;
59555;SDS011;45374;52.746;6.304;2022-08-25T12:39:56;5.00;;;2.80;;
59555;SDS011;45374;52.746;6.304;2022-08-25T12:42:29;3.38;;;2.45;;
59555;SDS011;45374;52.746;6.304;2022-08-25T12:47:44;3.53;;;2.70;;
59555;SDS011;45374;52.746;6.304;2022-08-25T12:52:58;4.40;;;2.30;;
59555;SDS011;45374;52.746;6.304;2022-08-25T12:55:35;4.80;;;2.40;;
59555;SDS011;45374;52.746;6.304;2022-08-25T12:58:03;5.20;;;2.67;;
59555;SDS011;45374;52.746;6.304;2022-08-25T13:00:37;5.13;;;2.97;;
59555;SDS011;45374;52.746;6.304;2022-08-25T13:06:21;4.57;;;3.10;;
59555;SDS011;45374;52.746;6.304;2022-08-25T13:17:02;6.22;;;3.13;;
59555;SDS011;45374;52.746;6.304;2022-08-25T13:19:28;11.82;;;3.38;;
59555;SDS011;45374;52.746;6.304;2022-08-25T13:21:54;9.93;;;3.55;;
59555;SDS011;45374;52.746;6.304;2022-08-25T13:24:27;4.35;;;3.13;;
59555;SDS011;45374;52.746;6.304;2022-08-25T13:27:05;6.05;;;3.38;;
59555;SDS011;45374;52.746;6.304;2022-08-25T13:29:34;12.02;;;3.42;;
59555;SDS011;45374;52.746;6.304;2022-08-25T13:32:05;5.63;;;3.08;;
59555;SDS011;45374;52.746;6.304;2022-08-25T13:34:35;4.38;;;3.00;;
59555;SDS011;45374;52.746;6.304;2022-08-25T13:37:07;11.57;;;3.30;;
59555;SDS011;45374;52.746;6.304;2022-08-25T13:40:12;6.10;;;3.15;;
59555;SDS011;45374;52.746;6.304;2022-08-25T13:42:45;5.18;;;2.75;;
59555;SDS011;45374;52.746;6.304;2022-08-25T13:45:17;3.20;;;2.90;;
59555;SDS011;45374;52.746;6.304;2022-08-25T13:47:48;2.95;;;2.65;;
59555;SDS011;45374;52.746;6.304;2022-08-25T13:53:00;4.88;;;2.88;;
59555;SDS011;45374;52.746;6.304;2022-08-25T13:58:02;4.82;;;3.20;;
59555;SDS011;45374;52.746;6.304;2022-08-25T14:00:40;4.25;;;3.10;;
59555;SDS011;45374;52.746;6.304;2022-08-25T14:03:27;5.35;;;3.17;;
59555;SDS011;45374;52.746;6.304;2022-08-25T14:08:39;3.58;;;2.90;;
59555;SDS011;45374;52.746;6.304;2022-08-25T14:11:12;3.63;;;2.97;;
59555;SDS011;45374;52.746;6.304;2022-08-25T14:13:57;5.20;;;3.63;;
59555;SDS011;45374;52.746;6.304;2022-08-25T14:16:28;8.43;;;3.42;;
59555;SDS011;45374;52.746;6.304;2022-08-25T14:19:01;7.65;;;3.88;;
59555;SDS011;45374;52.746;6.304;2022-08-25T14:21:29;14.00;;;3.40;;
59555;SDS011;45374;52.746;6.304;2022-08-25T14:23:56;6.00;;;3.80;;
59555;SDS011;45374;52.746;6.304;2022-08-25T14:26:22;4.70;;;4.00;;
59555;SDS011;45374;52.746;6.304;2022-08-25T14:28:49;4.78;;;3.83;;
59555;SDS011;45374;52.746;6.304;2022-08-25T14:31:25;8.52;;;3.78;;
59555;SDS011;45374;52.746;6.304;2022-08-25T14:34:05;6.57;;;3.72;;
59555;SDS011;45374;52.746;6.304;2022-08-25T14:36:34;10.00;;;3.83;;
59555;SDS011;45374;52.746;6.304;2022-08-25T14:39:00;4.57;;;3.53;;
59555;SDS011;45374;52.746;6.304;2022-08-25T14:41:30;6.43;;;3.85;;
59555;SDS011;45374;52.746;6.304;2022-08-25T14:44:01;5.38;;;3.72;;
59555;SDS011;45374;52.746;6.304;2022-08-25T14:46:29;9.07;;;4.13;;
59555;SDS011;45374;52.746;6.304;2022-08-25T14:48:57;6.25;;;3.80;;
59555;SDS011;45374;52.746;6.304;2022-08-25T14:51:25;5.03;;;4.07;;
59555;SDS011;45374;52.746;6.304;2022-08-25T14:53:53;4.13;;;3.70;;
59555;SDS011;45374;52.746;6.304;2022-08-25T14:56:21;4.80;;;4.30;;
59555;SDS011;45374;52.746;6.304;2022-08-25T14:58:46;5.60;;;4.03;;
59555;SDS011;45374;52.746;6.304;2022-08-25T15:01:12;6.25;;;4.40;;
59555;SDS011;45374;52.746;6.304;2022-08-25T15:03:40;9.43;;;4.32;;
59555;SDS011;45374;52.746;6.304;2022-08-25T15:06:10;5.47;;;4.18;;
59555;SDS011;45374;52.746;6.304;2022-08-25T15:08:37;5.97;;;4.20;;
59555;SDS011;45374;52.746;6.304;2022-08-25T15:11:21;5.97;;;4.43;;
59555;SDS011;45374;52.746;6.304;2022-08-25T15:13:47;6.57;;;4.40;;
59555;SDS011;45374;52.746;6.304;2022-08-25T15:16:21;6.40;;;4.50;;
59555;SDS011;45374;52.746;6.304;2022-08-25T15:18:50;10.07;;;4.78;;
59555;SDS011;45374;52.746;6.304;2022-08-25T15:21:16;6.90;;;4.43;;
59555;SDS011;45374;52.746;6.304;2022-08-25T15:23:42;7.78;;;4.47;;
59555;SDS011;45374;52.746;6.304;2022-08-25T15:26:08;7.85;;;4.55;;
59555;SDS011;45374;52.746;6.304;2022-08-25T15:28:41;10.45;;;4.50;;
59555;SDS011;45374;52.746;6.304;2022-08-25T15:31:10;6.43;;;4.43;;
59555;SDS011;45374;52.746;6.304;2022-08-25T15:33:36;7.28;;;3.85;;
59555;SDS011;45374;52.746;6.304;2022-08-25T15:36:03;6.55;;;4.32;;
59555;SDS011;45374;52.746;6.304;2022-08-25T15:38:35;4.97;;;4.05;;
59555;SDS011;45374;52.746;6.304;2022-08-25T15:41:01;4.72;;;4.22;;
59555;SDS011;45374;52.746;6.304;2022-08-25T15:43:27;5.95;;;4.00;;
59555;SDS011;45374;52.746;6.304;2022-08-25T15:45:52;5.88;;;4.40;;
59555;SDS011;45374;52.746;6.304;2022-08-25T15:48:18;5.80;;;4.10;;
59555;SDS011;45374;52.746;6.304;2022-08-25T15:50:44;6.13;;;4.10;;
59555;SDS011;45374;52.746;6.304;2022-08-25T15:53:11;5.65;;;4.50;;
59555;SDS011;45374;52.746;6.304;2022-08-25T15:55:37;6.40;;;4.40;;
59555;SDS011;45374;52.746;6.304;2022-08-25T15:58:04;6.32;;;4.13;;
59555;SDS011;45374;52.746;6.304;2022-08-25T16:00:30;5.03;;;4.40;;
59555;SDS011;45374;52.746;6.304;2022-08-25T16:02:55;5.32;;;4.80;;
59555;SDS011;45374;52.746;6.304;2022-08-25T16:05:21;8.82;;;4.88;;
59555;SDS011;45374;52.746;6.304;2022-08-25T16:07:47;8.63;;;4.65;;
59555;SDS011;45374;52.746;6.304;2022-08-25T16:10:12;7.88;;;4.80;;
59555;SDS011;45374;52.746;6.304;2022-08-25T16:12:38;5.80;;;4.90;;
59555;SDS011;45374;52.746;6.304;2022-08-25T16:15:04;7.47;;;4.65;;
59555;SDS011;45374;52.746;6.304;2022-08-25T16:17:30;5.75;;;4.75;;
59555;SDS011;45374;52.746;6.304;2022-08-25T16:19:56;5.68;;;4.70;;
59555;SDS011;45374;52.746;6.304;2022-08-25T16:22:22;6.43;;;4.78;;
59555;SDS011;45374;52.746;6.304;2022-08-25T16:24:48;5.80;;;4.93;;
59555;SDS011;45374;52.746;6.304;2022-08-25T16:27:14;5.97;;;4.72;;
59555;SDS011;45374;52.746;6.304;2022-08-25T16:29:40;7.85;;;5.00;;
59555;SDS011;45374;52.746;6.304;2022-08-25T16:32:08;7.05;;;4.65;;
59555;SDS011;45374;52.746;6.304;2022-08-25T16:34:36;9.35;;;5.13;;
59555;SDS011;45374;52.746;6.304;2022-08-25T16:37:02;7.78;;;5.20;;
59555;SDS011;45374;52.746;6.304;2022-08-25T16:39:28;5.80;;;5.20;;
59555;SDS011;45374;52.746;6.304;2022-08-25T16:41:54;8.15;;;5.28;;
59555;SDS011;45374;52.746;6.304;2022-08-25T16:44:20;7.50;;;5.20;;
59555;SDS011;45374;52.746;6.304;2022-08-25T16:46:46;8.63;;;5.10;;
59555;SDS011;45374;52.746;6.304;2022-08-25T16:49:12;5.13;;;4.63;;
59555;SDS011;45374;52.746;6.304;2022-08-25T16:51:39;7.72;;;4.85;;
59555;SDS011;45374;52.746;6.304;2022-08-25T16:54:06;5.57;;;4.97;;
59555;SDS011;45374;52.746;6.304;2022-08-25T16:56:52;5.40;;;4.78;;
59555;SDS011;45374;52.746;6.304;2022-08-25T16:59:18;7.55;;;5.30;;
59555;SDS011;45374;52.746;6.304;2022-08-25T17:01:43;6.00;;;5.07;;
59555;SDS011;45374;52.746;6.304;2022-08-25T17:04:09;6.15;;;5.18;;
59555;SDS011;45374;52.746;6.304;2022-08-25T17:06:40;9.63;;;5.43;;
59555;SDS011;45374;52.746;6.304;2022-08-25T17:09:07;8.80;;;5.65;;
59555;SDS011;45374;52.746;6.304;2022-08-25T17:11:38;6.05;;;5.32;;
59555;SDS011;45374;52.746;6.304;2022-08-25T17:14:11;6.03;;;4.95;;